createdAt,value
2023-02-28T00:01:30.075Z,13.32
2023-02-28T00:03:57.322Z,13.50
2023-02-28T00:06:25.461Z,14.13
2023-02-28T00:08:52.614Z,14.38
2023-02-28T00:11:19.609Z,12.75
2023-02-28T00:13:48.371Z,10.55
2023-02-28T00:16:19.297Z,11.02
2023-02-28T00:18:46.362Z,11.12
2023-02-28T00:21:13.249Z,10.45
2023-02-28T00:23:40.219Z,10.77
2023-02-28T00:26:07.131Z,11.05
2023-02-28T00:28:34.164Z,12.43
2023-02-28T00:31:01.370Z,11.18
2023-02-28T00:33:29.286Z,12.40
2023-02-28T00:36:06.473Z,11.18
2023-02-28T00:38:33.652Z,11.43
2023-02-28T00:41:05.824Z,12.23
2023-02-28T00:43:37.438Z,10.65
2023-02-28T00:46:04.954Z,11.50
2023-02-28T00:48:32.112Z,12.37
2023-02-28T00:50:59.066Z,11.55
2023-02-28T00:53:26.298Z,12.32
2023-02-28T00:55:53.431Z,12.98
2023-02-28T00:58:20.579Z,11.95
2023-02-28T01:00:50.275Z,11.05
2023-02-28T01:03:19.280Z,11.30
2023-02-28T01:05:46.719Z,9.85
2023-02-28T01:08:14.848Z,11.52
2023-02-28T01:10:41.975Z,10.32
2023-02-28T01:13:08.902Z,12.32
2023-02-28T01:15:35.926Z,11.00
2023-02-28T01:18:02.959Z,10.52
2023-02-28T01:20:29.836Z,9.88
2023-02-28T01:22:56.710Z,9.43
2023-02-28T01:25:23.779Z,10.07
2023-02-28T01:27:50.645Z,10.45
2023-02-28T01:30:17.665Z,9.68
2023-02-28T01:32:44.536Z,9.07
2023-02-28T01:35:11.459Z,9.40
2023-02-28T01:37:38.353Z,9.82
2023-02-28T01:40:05.900Z,9.13
2023-02-28T01:42:32.806Z,9.30
2023-02-28T01:45:05.325Z,9.40
2023-02-28T01:47:44.809Z,9.63
2023-02-28T01:50:18.796Z,9.30
2023-02-28T01:52:48.328Z,8.65
2023-02-28T01:55:18.029Z,10.93
2023-02-28T02:00:17.934Z,12.15
2023-02-28T02:02:48.788Z,10.55
2023-02-28T02:05:18.921Z,11.20
2023-02-28T02:07:49.560Z,11.05
2023-02-28T02:10:20.148Z,10.18
2023-02-28T02:12:52.857Z,10.60
2023-02-28T02:15:35.886Z,11.10
2023-02-28T02:18:13.960Z,11.15
2023-02-28T02:20:52.751Z,15.30
2023-02-28T02:23:37.953Z,10.13
2023-02-28T02:26:49.767Z,10.05
2023-02-28T02:29:43.992Z,10.35
2023-02-28T02:32:45.953Z,9.35
2023-02-28T02:35:29.659Z,9.68
2023-02-28T02:38:21.503Z,9.10
2023-02-28T02:41:15.109Z,9.88
2023-02-28T02:44:04.147Z,10.77
2023-02-28T02:46:33.106Z,9.40
2023-02-28T02:49:04.138Z,8.85
2023-02-28T02:51:33.942Z,8.32
2023-02-28T02:56:36.143Z,8.45
2023-02-28T02:59:06.539Z,7.93
2023-02-28T03:01:35.959Z,7.82
2023-02-28T03:04:08.881Z,8.07
2023-02-28T03:06:36.540Z,8.70
2023-02-28T03:09:04.008Z,8.27
2023-02-28T03:11:31.532Z,8.75
2023-02-28T03:14:37.262Z,8.13
2023-02-28T03:17:22.004Z,7.78
2023-02-28T03:19:51.715Z,8.25
2023-02-28T03:22:57.015Z,8.15
2023-02-28T03:25:48.422Z,8.50
2023-02-28T03:28:18.239Z,7.65
2023-02-28T03:33:31.562Z,8.23
2023-02-28T03:36:09.397Z,8.23
2023-02-28T03:38:41.868Z,7.57
2023-02-28T03:41:17.424Z,7.80
2023-02-28T03:43:51.765Z,8.25
2023-02-28T03:46:24.695Z,7.80
2023-02-28T03:49:06.436Z,6.90
2023-02-28T03:51:34.165Z,7.00
2023-02-28T03:54:12.870Z,7.65
2023-02-28T03:56:44.935Z,7.50
2023-02-28T03:59:19.748Z,7.57
2023-02-28T04:01:49.728Z,5.93
2023-02-28T04:04:18.062Z,7.35
2023-02-28T04:06:45.885Z,6.70
2023-02-28T04:09:15.919Z,6.57
2023-02-28T04:11:46.507Z,6.50
2023-02-28T04:14:13.725Z,6.95
2023-02-28T04:16:42.869Z,7.43
2023-02-28T04:19:11.826Z,6.78
2023-02-28T04:21:42.045Z,6.93
2023-02-28T04:24:15.439Z,7.05
2023-02-28T04:26:45.199Z,6.53
2023-02-28T04:29:14.500Z,8.02
2023-02-28T04:31:41.702Z,6.93
2023-02-28T04:34:08.695Z,6.68
2023-02-28T04:36:36.014Z,8.20
2023-02-28T04:39:03.525Z,6.95
2023-02-28T04:41:32.675Z,7.75
2023-02-28T04:44:00.059Z,8.25
2023-02-28T04:46:27.052Z,6.32
2023-02-28T04:48:55.531Z,8.52
2023-02-28T04:51:22.440Z,7.15
2023-02-28T04:53:50.084Z,7.03
2023-02-28T04:56:19.365Z,6.80
2023-02-28T04:58:46.531Z,7.50
2023-02-28T05:01:26.044Z,8.77
2023-02-28T05:03:54.625Z,8.68
2023-02-28T05:06:22.968Z,9.88
2023-02-28T05:08:49.831Z,10.38
2023-02-28T05:11:30.518Z,12.68
2023-02-28T05:13:57.666Z,15.23
2023-02-28T05:16:24.716Z,15.45
2023-02-28T05:18:51.747Z,12.43
2023-02-28T05:21:29.493Z,13.15
2023-02-28T05:23:58.692Z,13.35
2023-02-28T05:26:25.869Z,11.70
2023-02-28T05:28:52.909Z,13.62
2023-02-28T05:31:19.925Z,12.95
2023-02-28T05:33:47.227Z,14.95
2023-02-28T05:36:14.304Z,13.50
2023-02-28T05:38:41.225Z,12.80
2023-02-28T05:41:10.439Z,9.82
2023-02-28T05:43:38.660Z,10.60
2023-02-28T05:46:11.191Z,14.68
2023-02-28T05:48:39.602Z,14.43
2023-02-28T05:51:07.791Z,13.62
2023-02-28T05:53:35.120Z,11.60
2023-02-28T05:56:02.476Z,13.27
2023-02-28T05:58:32.032Z,11.25
2023-02-28T06:03:46.634Z,6.12
2023-02-28T06:06:13.539Z,6.10
2023-02-28T06:08:40.409Z,6.35
2023-02-28T06:11:07.970Z,6.47
2023-02-28T06:13:34.842Z,6.93
2023-02-28T06:16:02.544Z,7.53
2023-02-28T06:18:29.527Z,7.57
2023-02-28T06:20:57.217Z,16.10
2023-02-28T06:23:25.101Z,36.50
2023-02-28T06:25:52.079Z,10.90
2023-02-28T06:28:18.997Z,15.65
2023-02-28T06:30:46.623Z,8.63
2023-02-28T06:33:13.528Z,6.50
2023-02-28T06:35:40.742Z,7.12
2023-02-28T06:38:07.739Z,7.28
2023-02-28T06:40:37.994Z,7.93
2023-02-28T06:43:05.118Z,7.87
2023-02-28T06:45:32.028Z,9.68
2023-02-28T06:47:59.325Z,7.53
2023-02-28T06:50:26.537Z,7.47
2023-02-28T06:52:55.131Z,7.30
2023-02-28T06:55:21.971Z,6.82
2023-02-28T06:57:49.012Z,6.53
2023-02-28T07:00:16.479Z,5.80
2023-02-28T07:02:43.518Z,7.28
2023-02-28T07:05:10.452Z,6.20
2023-02-28T07:07:39.651Z,6.40
2023-02-28T07:10:06.991Z,7.57
2023-02-28T07:12:33.986Z,6.28
2023-02-28T07:15:00.976Z,6.60
2023-02-28T07:17:28.987Z,6.78
2023-02-28T07:19:57.586Z,10.15
2023-02-28T07:22:26.758Z,7.10
2023-02-28T07:24:53.792Z,9.35
2023-02-28T07:27:27.054Z,7.45
2023-02-28T07:29:54.555Z,6.87
2023-02-28T07:32:23.167Z,6.90
2023-02-28T07:34:50.425Z,7.57
2023-02-28T07:37:17.382Z,10.30
2023-02-28T07:39:44.260Z,12.32
2023-02-28T07:42:13.030Z,10.02
2023-02-28T07:44:41.794Z,10.65
2023-02-28T07:47:10.303Z,9.02
2023-02-28T07:49:38.221Z,7.47
2023-02-28T07:52:07.378Z,10.85
2023-02-28T07:54:35.274Z,6.93
2023-02-28T07:57:02.286Z,7.32
2023-02-28T07:59:31.902Z,15.27
2023-02-28T08:02:00.420Z,5.93
2023-02-28T08:04:27.870Z,5.43
2023-02-28T08:06:55.229Z,6.47
2023-02-28T08:09:22.184Z,8.50
2023-02-28T08:11:51.109Z,7.32
2023-02-28T08:14:18.003Z,10.13
2023-02-28T08:16:45.085Z,10.10
2023-02-28T08:19:12.063Z,6.20
2023-02-28T08:21:39.058Z,6.15
2023-02-28T08:24:06.494Z,6.22
2023-02-28T08:26:33.395Z,5.25
2023-02-28T08:29:01.512Z,6.97
2023-02-28T08:31:29.255Z,7.53
2023-02-28T08:34:01.940Z,6.60
2023-02-28T08:36:29.984Z,6.00
2023-02-28T08:38:59.195Z,6.22
2023-02-28T08:41:26.212Z,5.40
2023-02-28T08:43:56.843Z,5.20
2023-02-28T08:46:24.651Z,4.82
2023-02-28T08:48:55.990Z,5.75
2023-02-28T08:51:28.278Z,5.80
2023-02-28T08:53:59.627Z,4.70
2023-02-28T08:56:28.299Z,5.82
2023-02-28T08:58:56.870Z,5.75
2023-02-28T09:01:28.587Z,6.12
2023-02-28T09:06:29.205Z,6.12
2023-02-28T09:09:00.700Z,5.75
2023-02-28T09:11:38.726Z,6.30
2023-02-28T09:14:06.198Z,6.62
2023-02-28T09:16:34.662Z,7.12
2023-02-28T09:19:02.804Z,8.35
2023-02-28T09:21:33.140Z,6.20
2023-02-28T09:24:00.108Z,6.70
2023-02-28T09:26:34.868Z,5.25
2023-02-28T09:29:10.066Z,5.35
2023-02-28T09:31:37.150Z,6.18
2023-02-28T09:34:07.760Z,5.82
2023-02-28T09:36:44.684Z,6.50
2023-02-28T09:39:13.724Z,5.70
2023-02-28T09:41:53.424Z,5.07
2023-02-28T09:44:39.431Z,7.12
2023-02-28T09:47:18.079Z,6.25
2023-02-28T09:49:49.504Z,6.70
2023-02-28T09:52:31.624Z,6.10
2023-02-28T09:55:19.176Z,6.12
2023-02-28T09:57:47.024Z,6.90
2023-02-28T10:00:26.060Z,7.15
2023-02-28T10:03:36.169Z,7.43
2023-02-28T10:06:29.797Z,6.45
2023-02-28T10:09:17.096Z,6.90
2023-02-28T10:14:21.681Z,6.80
2023-02-28T10:17:14.677Z,6.68
2023-02-28T10:19:41.585Z,6.75
2023-02-28T10:22:18.592Z,6.15
2023-02-28T10:24:55.554Z,7.57
2023-02-28T10:27:25.038Z,6.28
2023-02-28T10:30:01.716Z,6.43
2023-02-28T10:32:37.158Z,6.50
2023-02-28T10:35:19.450Z,6.40
2023-02-28T10:37:51.708Z,6.00
2023-02-28T10:40:18.547Z,6.72
2023-02-28T10:43:02.847Z,6.57
2023-02-28T10:45:33.139Z,6.68
2023-02-28T10:48:07.464Z,6.40
2023-02-28T10:50:50.904Z,6.32
2023-02-28T10:53:26.941Z,6.62
2023-02-28T10:56:20.202Z,5.72
2023-02-28T10:58:52.520Z,6.28
2023-02-28T11:01:35.295Z,6.07
2023-02-28T11:04:02.905Z,5.95
2023-02-28T11:06:36.806Z,5.93
2023-02-28T11:09:25.438Z,6.32
2023-02-28T11:11:54.087Z,5.57
2023-02-28T11:14:28.924Z,5.55
2023-02-28T11:16:59.606Z,5.35
2023-02-28T11:19:35.213Z,6.97
2023-02-28T11:22:06.090Z,5.30
2023-02-28T11:24:41.016Z,6.55
2023-02-28T11:27:25.464Z,6.53
2023-02-28T11:29:52.608Z,5.32
2023-02-28T11:32:30.142Z,5.50
2023-02-28T11:35:12.340Z,5.53
2023-02-28T11:37:40.457Z,5.82
2023-02-28T11:40:19.548Z,6.28
2023-02-28T11:42:52.788Z,6.20
2023-02-28T11:45:50.350Z,6.25
2023-02-28T11:48:22.293Z,6.07
2023-02-28T11:51:28.063Z,6.07
2023-02-28T11:54:07.103Z,6.20
2023-02-28T11:56:37.003Z,5.97
2023-02-28T11:59:38.255Z,5.95
2023-02-28T12:02:26.373Z,6.37
2023-02-28T12:05:11.220Z,6.70
2023-02-28T12:08:01.864Z,7.45
2023-02-28T12:10:31.606Z,7.55
2023-02-28T12:13:27.349Z,6.72
2023-02-28T12:16:18.942Z,7.10
2023-02-28T12:19:08.190Z,6.30
2023-02-28T12:21:54.610Z,5.72
2023-02-28T12:24:35.393Z,6.00
2023-02-28T12:27:07.463Z,6.10
2023-02-28T12:29:46.969Z,6.45
2023-02-28T12:32:23.053Z,7.28
2023-02-28T12:35:02.301Z,7.10
2023-02-28T12:37:45.000Z,6.97
2023-02-28T12:40:21.497Z,6.00
2023-02-28T12:42:54.298Z,7.20
2023-02-28T12:45:26.285Z,6.05
2023-02-28T12:48:05.446Z,6.05
2023-02-28T12:50:34.460Z,6.53
2023-02-28T12:53:32.431Z,6.10
2023-02-28T12:55:59.387Z,6.57
2023-02-28T12:58:33.771Z,7.12
2023-02-28T13:01:27.034Z,8.70
2023-02-28T13:04:26.150Z,6.45
2023-02-28T13:07:11.266Z,5.82
2023-02-28T13:09:40.058Z,6.32
2023-02-28T13:12:17.891Z,6.65
2023-02-28T13:14:45.156Z,6.47
2023-02-28T13:17:22.380Z,6.70
2023-02-28T13:19:55.436Z,6.50
2023-02-28T13:22:22.408Z,6.62
2023-02-28T13:24:52.865Z,7.03
2023-02-28T13:27:26.608Z,8.02
2023-02-28T13:29:54.581Z,7.78
2023-02-28T13:32:33.077Z,6.93
2023-02-28T13:34:59.862Z,8.27
2023-02-28T13:37:26.716Z,7.53
2023-02-28T13:40:00.578Z,7.75
2023-02-28T13:42:50.765Z,7.65
2023-02-28T13:45:29.203Z,7.68
2023-02-28T13:48:01.102Z,7.72
2023-02-28T13:50:30.209Z,7.30
2023-02-28T13:53:15.505Z,7.12
2023-02-28T13:56:07.778Z,8.75
2023-02-28T13:58:53.345Z,7.72
2023-02-28T14:01:56.941Z,7.47
2023-02-28T14:04:45.577Z,8.38
2023-02-28T14:07:24.439Z,8.05
2023-02-28T14:09:58.672Z,7.28
2023-02-28T14:12:56.981Z,7.20
2023-02-28T14:15:49.396Z,7.35
2023-02-28T14:18:27.398Z,7.78
2023-02-28T14:21:27.565Z,7.70
2023-02-28T14:24:19.065Z,7.60
2023-02-28T14:27:17.006Z,7.62
2023-02-28T14:30:17.910Z,7.60
2023-02-28T14:33:15.230Z,7.32
2023-02-28T14:36:00.312Z,7.30
2023-02-28T14:38:41.587Z,6.80
2023-02-28T14:41:39.963Z,7.93
2023-02-28T14:44:24.872Z,7.53
2023-02-28T14:46:58.034Z,7.18
2023-02-28T14:49:29.675Z,8.00
2023-02-28T14:52:05.000Z,9.00
2023-02-28T14:54:32.047Z,8.13
2023-02-28T14:56:59.166Z,7.72
2023-02-28T14:59:36.857Z,7.87
2023-02-28T15:02:24.673Z,8.13
2023-02-28T15:05:03.474Z,8.65
2023-02-28T15:07:32.822Z,7.75
2023-02-28T15:10:28.093Z,8.75
2023-02-28T15:12:59.250Z,7.72
2023-02-28T15:15:46.160Z,8.13
2023-02-28T15:18:39.744Z,9.52
2023-02-28T15:21:12.709Z,9.18
2023-02-28T15:23:44.852Z,8.10
2023-02-28T15:26:20.787Z,7.12
2023-02-28T15:28:50.562Z,8.38
2023-02-28T15:31:56.004Z,9.30
2023-02-28T15:34:42.941Z,8.63
2023-02-28T15:38:03.225Z,8.13
2023-02-28T15:40:44.132Z,7.40
2023-02-28T15:43:24.302Z,8.40
2023-02-28T15:46:07.750Z,9.10
2023-02-28T15:48:38.428Z,8.60
2023-02-28T15:51:25.713Z,8.75
2023-02-28T15:53:58.614Z,9.20
2023-02-28T15:56:30.354Z,7.85
2023-02-28T15:59:04.228Z,7.93
2023-02-28T16:01:39.281Z,8.68
2023-02-28T16:04:17.702Z,8.68
2023-02-28T16:06:47.734Z,7.93
2023-02-28T16:09:18.321Z,8.25
2023-02-28T16:11:49.349Z,8.48
2023-02-28T16:14:24.145Z,8.18
2023-02-28T16:16:54.686Z,9.05
2023-02-28T16:19:24.349Z,8.57
2023-02-28T16:21:52.358Z,8.52
2023-02-28T16:24:19.299Z,9.13
2023-02-28T16:26:49.444Z,8.38
2023-02-28T16:29:27.622Z,8.88
2023-02-28T16:31:54.920Z,9.13
2023-02-28T16:34:22.206Z,9.73
2023-02-28T16:36:50.242Z,8.82
2023-02-28T16:39:19.336Z,8.52
2023-02-28T16:41:48.190Z,9.55
2023-02-28T16:44:38.450Z,9.50
2023-02-28T16:47:05.784Z,8.63
2023-02-28T16:49:32.748Z,9.35
2023-02-28T16:51:59.783Z,9.52
2023-02-28T16:54:26.789Z,9.63
2023-02-28T16:56:54.085Z,13.35
2023-02-28T16:59:25.899Z,12.15
2023-02-28T17:01:53.220Z,12.55
2023-02-28T17:04:20.531Z,27.55
2023-02-28T17:06:47.578Z,26.83
2023-02-28T17:09:28.370Z,26.08
2023-02-28T17:12:00.104Z,29.40
2023-02-28T17:14:27.066Z,32.72
2023-02-28T17:16:53.955Z,34.47
2023-02-28T17:19:21.780Z,36.55
2023-02-28T17:21:48.859Z,30.55
2023-02-28T17:24:28.908Z,30.80
2023-02-28T17:26:57.516Z,32.78
2023-02-28T17:29:27.692Z,39.40
2023-02-28T17:31:54.941Z,61.53
2023-02-28T17:34:23.109Z,63.10
2023-02-28T17:36:52.267Z,51.65
2023-02-28T17:39:26.860Z,54.47
2023-02-28T17:41:55.205Z,46.80
2023-02-28T17:44:23.483Z,36.40
2023-02-28T17:46:50.732Z,39.78
2023-02-28T17:49:19.217Z,41.33
2023-02-28T17:51:46.543Z,40.95
2023-02-28T17:54:15.105Z,43.65
2023-02-28T17:56:44.223Z,41.58
2023-02-28T17:59:12.869Z,32.10
2023-02-28T18:01:40.698Z,45.42
2023-02-28T18:04:07.806Z,41.17
2023-02-28T18:06:47.490Z,46.65
2023-02-28T18:09:19.769Z,43.60
2023-02-28T18:11:46.583Z,46.03
2023-02-28T18:14:13.800Z,59.83
2023-02-28T18:16:40.767Z,57.75
2023-02-28T18:19:08.702Z,38.85
2023-02-28T18:21:36.409Z,41.47
2023-02-28T18:24:03.404Z,37.47
2023-02-28T18:26:30.624Z,40.22
2023-02-28T18:28:57.841Z,33.63
2023-02-28T18:31:24.690Z,22.67
2023-02-28T18:33:53.359Z,17.33
2023-02-28T18:36:22.192Z,18.02
2023-02-28T18:38:50.686Z,15.43
2023-02-28T18:41:20.938Z,12.40
2023-02-28T18:43:49.761Z,14.90
2023-02-28T18:46:19.559Z,12.43
2023-02-28T18:48:47.573Z,13.18
2023-02-28T18:51:20.014Z,12.00
2023-02-28T18:53:47.385Z,13.65
2023-02-28T18:56:16.609Z,14.18
2023-02-28T18:58:43.908Z,14.48
2023-02-28T19:01:27.149Z,14.35
2023-02-28T19:03:54.078Z,12.98
2023-02-28T19:06:21.183Z,13.50
2023-02-28T19:08:49.488Z,13.60
2023-02-28T19:11:18.592Z,15.65
2023-02-28T19:13:46.602Z,13.57
2023-02-28T19:16:16.220Z,12.95
2023-02-28T19:18:43.637Z,13.27
2023-02-28T19:21:12.549Z,12.82
2023-02-28T19:23:41.378Z,14.50
2023-02-28T19:26:21.086Z,14.85
2023-02-28T19:28:49.038Z,14.73
2023-02-28T19:31:24.414Z,15.38
2023-02-28T19:33:56.206Z,11.43
2023-02-28T19:36:24.156Z,15.48
2023-02-28T19:38:51.114Z,18.30
2023-02-28T19:41:18.429Z,16.92
2023-02-28T19:43:45.848Z,15.55
2023-02-28T19:46:14.015Z,15.95
2023-02-28T19:48:42.559Z,16.12
2023-02-28T19:51:12.608Z,16.65
2023-02-28T19:53:41.667Z,16.25
2023-02-28T19:56:09.822Z,16.10
2023-02-28T19:58:37.584Z,16.02
2023-02-28T20:01:16.209Z,15.68
2023-02-28T20:03:43.711Z,15.75
2023-02-28T20:06:15.741Z,16.67
2023-02-28T20:08:43.270Z,20.37
2023-02-28T20:11:16.808Z,21.75
2023-02-28T20:13:45.396Z,22.13
2023-02-28T20:16:14.227Z,20.10
2023-02-28T20:18:44.384Z,19.10
2023-02-28T20:21:12.711Z,23.60
2023-02-28T20:23:40.522Z,20.83
2023-02-28T20:26:08.184Z,22.37
2023-02-28T20:28:35.118Z,19.55
2023-02-28T20:31:02.157Z,20.00
2023-02-28T20:33:29.247Z,19.90
2023-02-28T20:36:02.932Z,20.20
2023-02-28T20:38:29.854Z,19.20
2023-02-28T20:40:59.500Z,19.58
2023-02-28T20:43:26.502Z,15.18
2023-02-28T20:45:55.139Z,16.02
2023-02-28T20:48:22.561Z,17.85
2023-02-28T20:50:54.655Z,17.90
2023-02-28T20:53:22.145Z,15.27
2023-02-28T20:56:11.340Z,16.30
2023-02-28T20:58:38.649Z,13.13
2023-02-28T21:01:12.993Z,16.92
2023-02-28T21:03:40.580Z,18.37
2023-02-28T21:06:08.267Z,16.95
2023-02-28T21:08:36.864Z,20.10
2023-02-28T21:11:09.115Z,22.25
2023-02-28T21:13:36.548Z,26.80
2023-02-28T21:16:05.772Z,24.80
2023-02-28T21:18:34.966Z,20.75
2023-02-28T21:21:11.363Z,27.60
2023-02-28T21:23:38.281Z,30.12
2023-02-28T21:26:07.803Z,29.23
2023-02-28T21:28:35.676Z,26.55
2023-02-28T21:31:07.949Z,22.75
2023-02-28T21:33:36.402Z,22.90
2023-02-28T21:36:06.538Z,21.62
2023-02-28T21:38:35.144Z,20.95
2023-02-28T21:41:10.500Z,21.52
2023-02-28T21:43:37.942Z,19.77
2023-02-28T21:46:07.216Z,19.33
2023-02-28T21:48:34.937Z,18.70
2023-02-28T21:51:07.349Z,19.65
2023-02-28T21:53:36.579Z,20.12
2023-02-28T21:56:06.094Z,24.55
2023-02-28T21:58:33.478Z,25.95
2023-02-28T22:01:12.550Z,25.08
2023-02-28T22:03:39.749Z,19.98
2023-02-28T22:06:22.065Z,16.98
2023-02-28T22:08:52.873Z,14.57
2023-02-28T22:11:21.293Z,15.32
2023-02-28T22:13:48.948Z,19.40
2023-02-28T22:16:18.795Z,17.48
2023-02-28T22:21:14.263Z,14.52
2023-02-28T22:23:42.328Z,18.40
2023-02-28T22:26:11.714Z,18.83
2023-02-28T22:28:39.335Z,15.82
2023-02-28T22:31:15.073Z,14.60
2023-02-28T22:33:42.699Z,13.27
2023-02-28T22:36:10.297Z,19.70
2023-02-28T22:38:37.427Z,21.55
2023-02-28T22:41:05.682Z,16.40
2023-02-28T22:43:32.884Z,13.80
2023-02-28T22:46:04.914Z,18.33
2023-02-28T22:48:31.899Z,14.35
2023-02-28T22:51:16.475Z,12.85
2023-02-28T22:53:45.581Z,13.05
2023-02-28T22:56:14.674Z,13.62
2023-02-28T22:58:43.359Z,18.55
2023-02-28T23:01:17.059Z,15.75
2023-02-28T23:03:44.495Z,13.32
2023-02-28T23:06:30.008Z,13.50
2023-02-28T23:09:00.520Z,13.80
2023-02-28T23:11:33.683Z,12.73
2023-02-28T23:14:00.812Z,12.18
2023-02-28T23:16:35.170Z,14.05
2023-02-28T23:19:05.028Z,14.55
2023-02-28T23:21:32.057Z,13.07
2023-02-28T23:24:00.999Z,13.13
2023-02-28T23:26:28.094Z,13.30
2023-02-28T23:28:55.299Z,12.88
2023-02-28T23:31:22.312Z,13.27
2023-02-28T23:33:49.626Z,14.15
2023-02-28T23:36:17.418Z,13.62
2023-02-28T23:38:48.295Z,13.70
2023-02-28T23:41:16.122Z,12.55
2023-02-28T23:43:43.395Z,12.98
2023-02-28T23:46:12.163Z,13.80
2023-02-28T23:48:40.200Z,14.35
2023-02-28T23:51:10.941Z,14.30
2023-02-28T23:53:40.113Z,13.32
2023-02-28T23:56:08.998Z,14.48
2023-02-28T23:58:36.273Z,13.82
